createdAt,value
2018-12-14T00:00:15.954Z,45.95
2018-12-14T00:02:46.169Z,43.65
2018-12-14T00:05:18.802Z,44.58
2018-12-14T00:07:49.625Z,35.63
2018-12-14T00:10:22.731Z,44.85
2018-12-14T00:12:53.056Z,48.93
2018-12-14T00:19:16.652Z,41.37
2018-12-14T00:21:46.772Z,48.53
2018-12-14T00:24:17.736Z,40.00
2018-12-14T00:26:49.855Z,38.55
2018-12-14T00:29:26.533Z,48.73
2018-12-14T00:31:57.876Z,43.33
2018-12-14T00:34:28.555Z,46.77
2018-12-14T00:36:59.257Z,41.87
2018-12-14T00:39:29.884Z,38.93
2018-12-14T00:42:00.748Z,45.57
2018-12-14T00:44:31.004Z,39.00
2018-12-14T00:47:07.901Z,41.53
2018-12-14T00:49:38.806Z,41.33
2018-12-14T00:52:09.973Z,39.60
2018-12-14T00:54:40.110Z,46.67
2018-12-14T00:57:16.931Z,40.93
2018-12-14T00:59:46.956Z,37.28
2018-12-14T01:02:23.276Z,45.95
2018-12-14T01:04:55.050Z,43.67
2018-12-14T01:07:31.863Z,45.07
2018-12-14T01:10:01.924Z,40.52
2018-12-14T01:12:32.147Z,42.03
2018-12-14T01:15:06.384Z,44.00
2018-12-14T01:17:39.065Z,38.30
2018-12-14T01:20:10.553Z,40.60
2018-12-14T01:22:40.914Z,38.43
2018-12-14T01:25:11.233Z,38.70
2018-12-14T01:27:42.099Z,39.83
2018-12-14T01:30:12.892Z,40.33
2018-12-14T01:32:43.156Z,40.60
2018-12-14T01:35:14.257Z,38.63
2018-12-14T01:37:44.767Z,34.93
2018-12-14T01:40:15.170Z,36.30
2018-12-14T01:42:46.296Z,43.33
2018-12-14T01:45:17.124Z,36.03
2018-12-14T01:47:47.532Z,41.83
2018-12-14T01:50:18.120Z,40.20
2018-12-14T01:52:53.206Z,39.73
2018-12-14T01:55:25.256Z,40.93
2018-12-14T01:57:58.890Z,36.97
2018-12-14T02:00:30.278Z,39.65
2018-12-14T02:03:01.227Z,36.68
2018-12-14T02:05:32.261Z,42.83
2018-12-14T02:08:05.836Z,40.70
2018-12-14T02:10:37.299Z,41.07
2018-12-14T02:13:09.420Z,37.93
2018-12-14T02:15:40.464Z,48.98
2018-12-14T02:18:11.008Z,41.02
2018-12-14T02:20:41.243Z,42.30
2018-12-14T02:23:15.148Z,42.50
2018-12-14T02:25:45.327Z,45.23
2018-12-14T02:28:16.337Z,42.00
2018-12-14T02:30:46.784Z,43.67
2018-12-14T02:33:17.425Z,52.10
2018-12-14T02:35:49.304Z,44.93
2018-12-14T02:38:21.486Z,48.40
2018-12-14T02:40:52.354Z,44.73
2018-12-14T02:43:23.981Z,40.35
2018-12-14T02:45:56.663Z,48.20
2018-12-14T02:48:27.803Z,45.70
2018-12-14T02:50:58.484Z,45.33
2018-12-14T02:53:31.471Z,43.63
2018-12-14T02:56:05.625Z,51.13
2018-12-14T02:58:36.546Z,53.20
2018-12-14T03:01:07.140Z,50.35
2018-12-14T03:03:37.741Z,44.00
2018-12-14T03:06:08.888Z,54.83
2018-12-14T03:08:39.864Z,42.08
2018-12-14T03:11:14.420Z,43.70
2018-12-14T03:13:44.448Z,51.13
2018-12-14T03:16:17.215Z,48.63
2018-12-14T03:18:49.539Z,43.60
2018-12-14T03:21:21.619Z,45.63
2018-12-14T03:23:54.524Z,44.03
2018-12-14T03:26:28.873Z,49.90
2018-12-14T03:28:59.618Z,47.93
2018-12-14T03:31:30.162Z,45.47
2018-12-14T03:34:00.820Z,43.90
2018-12-14T03:36:31.390Z,43.70
2018-12-14T03:39:01.772Z,61.73
2018-12-14T03:41:32.694Z,45.03
2018-12-14T03:44:02.841Z,44.95
2018-12-14T03:46:33.621Z,40.55
2018-12-14T03:49:10.479Z,47.30
2018-12-14T03:51:42.763Z,50.17
2018-12-14T03:54:13.748Z,41.03
2018-12-14T03:56:45.758Z,46.80
2018-12-14T03:59:16.604Z,45.40
2018-12-14T04:01:46.808Z,44.13
2018-12-14T04:04:17.857Z,38.50
2018-12-14T04:06:50.213Z,45.63
2018-12-14T04:09:22.717Z,45.27
2018-12-14T04:11:52.874Z,41.87
2018-12-14T04:14:22.973Z,46.90
2018-12-14T04:16:56.562Z,42.97
2018-12-14T04:19:28.853Z,46.80
2018-12-14T04:21:58.960Z,40.73
2018-12-14T04:24:29.679Z,47.13
2018-12-14T04:26:59.888Z,40.53
2018-12-14T04:29:31.527Z,46.35
2018-12-14T04:32:02.173Z,45.97
2018-12-14T04:34:32.832Z,41.90
2018-12-14T04:37:02.929Z,41.40
2018-12-14T04:39:33.869Z,42.00
2018-12-14T04:42:04.023Z,46.50
2018-12-14T04:44:34.848Z,47.87
2018-12-14T04:47:05.640Z,54.80
2018-12-14T04:49:36.133Z,47.48
2018-12-14T04:56:04.777Z,39.30
2018-12-14T04:58:34.865Z,39.87
2018-12-14T05:01:06.085Z,39.15
2018-12-14T05:04:04.620Z,42.77
2018-12-14T05:06:35.512Z,40.43
2018-12-14T05:09:08.407Z,44.87
2018-12-14T05:11:39.394Z,42.80
2018-12-14T05:14:11.113Z,42.50
2018-12-14T05:16:45.357Z,43.80
2018-12-14T05:19:18.201Z,49.03
2018-12-14T05:21:50.454Z,48.27
2018-12-14T05:24:22.174Z,47.90
2018-12-14T05:26:53.849Z,44.80
2018-12-14T05:29:24.307Z,47.70
2018-12-14T05:32:07.516Z,50.67
2018-12-14T05:34:39.176Z,56.20
2018-12-14T05:37:13.815Z,46.87
2018-12-14T05:39:45.651Z,54.80
2018-12-14T05:42:18.235Z,54.93
2018-12-14T05:44:50.164Z,71.40
2018-12-14T05:47:22.249Z,76.10
2018-12-14T05:49:59.235Z,63.40
2018-12-14T05:52:36.549Z,45.87
2018-12-14T05:55:07.506Z,49.67
2018-12-14T05:57:40.697Z,58.97
2018-12-14T06:00:12.806Z,50.05
2018-12-14T06:02:45.328Z,55.25
2018-12-14T06:05:18.260Z,50.95
2018-12-14T06:07:50.781Z,43.67
2018-12-14T06:10:23.319Z,51.43
2018-12-14T06:13:00.120Z,49.13
2018-12-14T06:15:30.355Z,53.95
2018-12-14T06:18:01.759Z,51.53
2018-12-14T06:20:32.321Z,49.57
2018-12-14T06:23:03.010Z,49.27
2018-12-14T06:25:33.777Z,46.10
2018-12-14T06:28:04.629Z,44.70
2018-12-14T06:30:34.944Z,47.97
2018-12-14T06:33:05.399Z,41.83
2018-12-14T06:35:36.126Z,47.70
2018-12-14T06:38:06.459Z,46.53
2018-12-14T06:40:37.100Z,54.30
2018-12-14T06:43:07.842Z,44.80
2018-12-14T06:45:46.506Z,47.67
2018-12-14T06:48:17.392Z,49.47
2018-12-14T06:50:48.057Z,44.98
2018-12-14T06:53:18.632Z,44.93
2018-12-14T06:55:55.540Z,41.80
2018-12-14T06:58:26.140Z,44.83
2018-12-14T07:00:56.516Z,48.87
2018-12-14T07:03:30.538Z,49.67
2018-12-14T07:06:03.572Z,43.80
2018-12-14T07:08:39.016Z,57.53
2018-12-14T07:11:11.535Z,43.47
2018-12-14T07:13:44.668Z,44.10
2018-12-14T07:16:21.503Z,46.47
2018-12-14T07:18:52.583Z,46.23
2018-12-14T07:21:29.367Z,53.75
2018-12-14T07:23:59.844Z,48.97
2018-12-14T07:26:30.803Z,46.80
2018-12-14T07:29:04.366Z,43.37
2018-12-14T07:31:34.488Z,47.33
2018-12-14T07:34:05.839Z,50.73
2018-12-14T07:36:36.675Z,55.37
2018-12-14T07:39:08.292Z,45.50
2018-12-14T07:41:38.796Z,39.03
2018-12-14T07:44:08.851Z,44.67
2018-12-14T07:46:39.017Z,51.73
2018-12-14T07:49:09.996Z,58.33
2018-12-14T07:51:40.571Z,44.63
2018-12-14T07:54:10.963Z,40.63
2018-12-14T07:56:41.759Z,47.83
2018-12-14T07:59:12.780Z,45.40
2018-12-14T08:01:42.827Z,43.42
2018-12-14T08:08:07.883Z,47.03
2018-12-14T08:10:39.889Z,42.90
2018-12-14T08:13:16.151Z,49.85
2018-12-14T08:15:46.782Z,43.53
2018-12-14T08:18:17.715Z,44.25
2018-12-14T08:20:48.511Z,45.33
2018-12-14T08:23:19.032Z,48.23
2018-12-14T08:25:49.890Z,46.53
2018-12-14T08:28:26.944Z,46.93
2018-12-14T08:30:57.815Z,42.13
2018-12-14T08:33:28.121Z,44.10
2018-12-14T08:35:58.992Z,42.53
2018-12-14T08:38:35.776Z,41.87
2018-12-14T08:41:07.135Z,45.43
2018-12-14T08:43:41.361Z,40.97
2018-12-14T08:46:10.946Z,44.17
2018-12-14T08:48:41.746Z,43.80
2018-12-14T08:51:12.171Z,46.00
2018-12-14T08:53:43.358Z,46.70
2018-12-14T08:56:13.528Z,47.13
2018-12-14T08:58:43.992Z,44.27
2018-12-14T09:01:14.520Z,44.10
2018-12-14T09:03:44.993Z,40.07
2018-12-14T09:06:16.272Z,44.07
2018-12-14T09:08:46.630Z,39.90
2018-12-14T09:11:17.374Z,49.70
2018-12-14T09:13:47.992Z,37.17
2018-12-14T09:16:18.804Z,40.28
2018-12-14T09:18:49.276Z,45.37
2018-12-14T09:21:19.939Z,39.27
2018-12-14T09:23:50.125Z,40.25
2018-12-14T09:26:22.164Z,38.15
2018-12-14T09:28:52.262Z,48.40
2018-12-14T09:31:23.384Z,38.63
2018-12-14T09:33:54.427Z,42.47
2018-12-14T09:36:24.856Z,47.13
2018-12-14T09:38:55.377Z,38.87
2018-12-14T09:41:26.351Z,45.65
2018-12-14T09:43:57.149Z,41.77
2018-12-14T09:46:27.499Z,47.00
2018-12-14T09:48:58.544Z,32.45
2018-12-14T09:51:32.260Z,41.90
2018-12-14T09:54:03.373Z,40.63
2018-12-14T09:56:40.768Z,43.67
2018-12-14T09:59:13.725Z,42.53
2018-12-14T10:01:46.470Z,45.33
2018-12-14T10:04:17.389Z,41.13
2018-12-14T10:06:47.803Z,35.10
2018-12-14T10:09:18.528Z,36.63
2018-12-14T10:11:54.916Z,39.20
2018-12-14T10:14:22.980Z,36.33
2018-12-14T10:16:53.417Z,42.23
2018-12-14T10:19:28.348Z,40.03
2018-12-14T10:22:00.350Z,38.93
2018-12-14T10:24:32.977Z,39.00
2018-12-14T10:27:05.728Z,36.10
2018-12-14T10:29:36.085Z,36.00
2018-12-14T10:32:06.415Z,42.80
2018-12-14T10:34:43.899Z,39.67
2018-12-14T10:37:14.672Z,37.23
2018-12-14T10:39:45.576Z,39.43
2018-12-14T10:42:18.873Z,35.87
2018-12-14T10:44:50.935Z,36.17
2018-12-14T10:47:23.616Z,43.43
2018-12-14T10:50:01.238Z,39.57
2018-12-14T10:52:34.139Z,31.70
2018-12-14T10:55:07.348Z,41.97
2018-12-14T10:57:40.375Z,39.45
2018-12-14T11:00:18.769Z,41.50
2018-12-14T11:02:51.666Z,41.70
2018-12-14T11:05:24.621Z,40.88
2018-12-14T11:07:55.820Z,36.77
2018-12-14T11:10:26.568Z,34.08
2018-12-14T11:12:59.590Z,38.00
2018-12-14T11:15:30.625Z,37.20
2018-12-14T11:18:01.878Z,43.00
2018-12-14T11:20:34.530Z,38.90
2018-12-14T11:23:06.196Z,46.87
2018-12-14T11:25:38.096Z,42.10
2018-12-14T11:28:09.123Z,43.43
2018-12-14T11:30:40.167Z,42.97
2018-12-14T11:33:10.288Z,43.83
2018-12-14T11:35:41.229Z,41.40
2018-12-14T11:38:12.241Z,43.55
2018-12-14T11:40:42.919Z,39.40
2018-12-14T11:43:17.017Z,40.55
2018-12-14T11:45:47.779Z,41.33
2018-12-14T11:48:18.136Z,44.40
2018-12-14T11:50:50.209Z,42.55
2018-12-14T11:57:15.247Z,41.50
2018-12-14T11:59:46.560Z,39.50
2018-12-14T12:02:16.206Z,42.73
2018-12-14T12:04:46.352Z,52.80
2018-12-14T12:07:17.415Z,45.67
2018-12-14T12:09:47.119Z,41.47
2018-12-14T12:12:18.396Z,51.87
2018-12-14T12:14:50.340Z,45.87
2018-12-14T12:17:20.346Z,48.25
2018-12-14T12:19:53.623Z,51.53
2018-12-14T12:22:24.731Z,44.37
2018-12-14T12:24:55.328Z,49.73
2018-12-14T12:27:26.031Z,51.40
2018-12-14T12:33:51.680Z,42.30
2018-12-14T12:36:22.630Z,58.73
2018-12-14T12:38:53.637Z,54.57
2018-12-14T12:41:23.658Z,46.42
2018-12-14T12:43:55.639Z,56.53
2018-12-14T12:46:25.655Z,51.57
2018-12-14T12:48:55.845Z,50.55
2018-12-14T12:51:26.948Z,62.03
2018-12-14T12:53:57.459Z,55.07
2018-12-14T12:56:28.793Z,58.40
2018-12-14T12:58:59.506Z,52.50
2018-12-14T13:01:29.748Z,53.23
2018-12-14T13:04:00.483Z,45.10
2018-12-14T13:06:30.444Z,48.30
2018-12-14T13:09:01.633Z,49.18
2018-12-14T13:11:31.665Z,46.10
2018-12-14T13:14:02.863Z,46.90
2018-12-14T13:16:33.457Z,51.20
2018-12-14T13:19:04.037Z,51.30
2018-12-14T13:21:34.949Z,46.30
2018-12-14T13:24:04.944Z,49.83
2018-12-14T13:26:41.706Z,56.40
2018-12-14T13:29:12.514Z,50.40
2018-12-14T13:31:46.501Z,53.67
2018-12-14T13:34:16.768Z,60.60
2018-12-14T13:36:49.636Z,47.23
2018-12-14T13:39:21.021Z,44.70
2018-12-14T13:41:54.180Z,51.23
2018-12-14T13:44:26.532Z,59.18
2018-12-14T13:46:58.899Z,52.40
2018-12-14T13:49:30.695Z,53.75
2018-12-14T13:52:00.733Z,62.23
2018-12-14T13:58:24.100Z,61.20
2018-12-14T14:00:54.005Z,52.80
2018-12-14T14:03:25.650Z,57.70
2018-12-14T14:05:57.042Z,53.40
2018-12-14T14:08:27.065Z,48.67
2018-12-14T14:10:56.971Z,52.83
2018-12-14T14:13:28.290Z,59.33
2018-12-14T14:16:01.277Z,55.75
2018-12-14T14:18:33.145Z,53.83
2018-12-14T14:21:08.905Z,50.73
2018-12-14T14:23:40.610Z,52.73
2018-12-14T14:26:24.314Z,57.87
2018-12-14T14:28:56.009Z,58.77
2018-12-14T14:31:26.835Z,52.23
2018-12-14T14:33:59.977Z,59.50
2018-12-14T14:36:35.484Z,53.60
2018-12-14T14:39:12.806Z,60.80
2018-12-14T14:41:43.852Z,57.63
2018-12-14T14:44:14.081Z,67.67
2018-12-14T14:46:44.161Z,57.43
2018-12-14T14:49:15.278Z,61.63
2018-12-14T14:51:45.617Z,53.70
2018-12-14T14:54:16.063Z,54.30
2018-12-14T14:56:49.901Z,56.08
2018-12-14T14:59:21.317Z,62.83
2018-12-14T15:01:52.395Z,56.20
2018-12-14T15:04:22.704Z,61.13
2018-12-14T15:07:05.183Z,56.57
2018-12-14T15:09:36.227Z,61.20
2018-12-14T15:12:06.176Z,58.37
2018-12-14T15:14:37.264Z,58.60
2018-12-14T15:17:08.252Z,64.10
2018-12-14T15:19:38.931Z,61.77
2018-12-14T15:22:09.143Z,51.77
2018-12-14T15:24:40.159Z,54.77
2018-12-14T15:27:10.116Z,59.97
2018-12-14T15:29:41.440Z,67.53
2018-12-14T15:32:12.639Z,59.10
2018-12-14T15:34:42.167Z,76.10
2018-12-14T15:37:14.241Z,61.10
2018-12-14T15:39:46.565Z,53.50
2018-12-14T15:42:17.546Z,55.97
2018-12-14T15:44:47.201Z,57.37
2018-12-14T15:47:18.651Z,56.87
2018-12-14T15:49:49.639Z,64.07
2018-12-14T15:52:20.282Z,59.90
2018-12-14T15:54:51.518Z,62.25
2018-12-14T15:57:21.957Z,61.28
2018-12-14T15:59:53.252Z,53.75
2018-12-14T16:02:23.712Z,60.08
2018-12-14T16:04:53.425Z,58.87
2018-12-14T16:07:25.312Z,61.30
2018-12-14T16:09:56.205Z,55.67
2018-12-14T16:12:30.239Z,55.43
2018-12-14T16:15:00.895Z,62.40
2018-12-14T16:17:31.421Z,60.33
2018-12-14T16:20:02.062Z,56.57
2018-12-14T16:22:33.526Z,59.67
2018-12-14T16:25:07.189Z,55.63
2018-12-14T16:27:39.982Z,56.60
2018-12-14T16:30:13.064Z,55.70
2018-12-14T16:32:43.962Z,68.07
2018-12-14T16:35:14.129Z,57.37
2018-12-14T16:37:44.292Z,65.47
2018-12-14T16:40:14.471Z,64.33
2018-12-14T16:42:44.588Z,57.47
2018-12-14T16:45:14.898Z,63.57
2018-12-14T16:47:45.129Z,62.00
2018-12-14T16:50:16.409Z,59.90
2018-12-14T16:52:47.687Z,59.23
2018-12-14T16:55:18.032Z,53.13
2018-12-14T16:57:49.732Z,60.92
2018-12-14T17:00:20.208Z,58.13
2018-12-14T17:02:50.469Z,65.10
2018-12-14T17:05:20.548Z,55.20
2018-12-14T17:07:51.004Z,55.53
2018-12-14T17:10:21.225Z,62.37
2018-12-14T17:12:51.441Z,62.20
2018-12-14T17:15:21.577Z,49.03
2018-12-14T17:17:51.968Z,50.20
2018-12-14T17:20:23.039Z,48.80
2018-12-14T17:22:53.165Z,59.80
2018-12-14T17:25:24.300Z,67.10
2018-12-14T17:27:55.366Z,61.30
2018-12-14T17:30:25.730Z,56.47
2018-12-14T17:32:55.948Z,55.63
2018-12-14T17:35:26.216Z,52.37
2018-12-14T17:37:56.295Z,55.50
2018-12-14T17:40:26.652Z,55.53
2018-12-14T17:42:56.809Z,54.33
2018-12-14T17:45:26.951Z,55.33
2018-12-14T17:47:57.079Z,53.90
2018-12-14T17:50:27.568Z,57.47
2018-12-14T17:52:57.718Z,64.20
2018-12-14T17:55:27.951Z,49.55
2018-12-14T17:57:58.644Z,55.55
2018-12-14T18:00:28.904Z,53.63
2018-12-14T18:02:58.932Z,62.17
2018-12-14T18:05:29.063Z,60.23
2018-12-14T18:08:05.447Z,52.57
2018-12-14T18:10:35.610Z,55.40
2018-12-14T18:13:05.800Z,62.57
2018-12-14T18:15:36.128Z,64.07
2018-12-14T18:18:06.351Z,54.25
2018-12-14T18:20:36.583Z,56.57
2018-12-14T18:23:06.680Z,57.37
2018-12-14T18:25:36.882Z,55.17
2018-12-14T18:28:06.921Z,68.12
2018-12-14T18:30:37.795Z,67.83
2018-12-14T18:33:09.253Z,58.78
2018-12-14T18:35:39.599Z,60.43
2018-12-14T18:38:10.874Z,54.00
2018-12-14T18:40:41.209Z,66.47
2018-12-14T18:43:11.402Z,55.27
2018-12-14T18:45:41.990Z,63.60
2018-12-14T18:48:12.374Z,60.17
2018-12-14T18:50:42.649Z,56.70
2018-12-14T18:53:12.916Z,52.83
2018-12-14T18:55:43.225Z,58.33
2018-12-14T18:58:13.458Z,52.33
2018-12-14T19:00:43.690Z,53.83
2018-12-14T19:03:14.447Z,57.75
2018-12-14T19:05:44.481Z,60.10
2018-12-14T19:08:14.778Z,62.10
2018-12-14T19:10:45.097Z,59.13
2018-12-14T19:13:15.363Z,68.90
2018-12-14T19:15:45.432Z,58.13
2018-12-14T19:18:15.665Z,62.67
2018-12-14T19:20:45.837Z,64.70
2018-12-14T19:27:12.358Z,61.33
2018-12-14T19:29:42.603Z,59.47
2018-12-14T19:32:13.444Z,75.83
2018-12-14T19:34:43.894Z,63.83
2018-12-14T19:37:14.203Z,63.00
2018-12-14T19:39:44.667Z,68.20
2018-12-14T19:42:14.758Z,72.70
2018-12-14T19:44:44.979Z,67.97
2018-12-14T19:47:15.555Z,75.17
2018-12-14T19:49:45.977Z,71.37
2018-12-14T19:52:16.315Z,68.37
2018-12-14T19:54:46.420Z,72.97
2018-12-14T19:57:16.751Z,72.33
2018-12-14T19:59:47.138Z,73.28
2018-12-14T20:02:17.607Z,73.28
2018-12-14T20:04:47.883Z,65.47
2018-12-14T20:07:18.150Z,72.10
2018-12-14T20:09:48.214Z,77.17
2018-12-14T20:12:18.540Z,64.93
2018-12-14T20:14:48.905Z,74.17
2018-12-14T20:17:19.124Z,76.42
2018-12-14T20:19:49.354Z,76.03
2018-12-14T20:22:19.694Z,72.60
2018-12-14T20:24:50.115Z,78.50
2018-12-14T20:27:21.294Z,66.87
2018-12-14T20:29:51.485Z,70.75
2018-12-14T20:32:21.698Z,75.23
2018-12-14T20:34:52.082Z,71.70
2018-12-14T20:37:22.383Z,75.67
2018-12-14T20:39:52.791Z,73.97
2018-12-14T20:42:23.102Z,70.50
2018-12-14T20:44:53.479Z,74.70
2018-12-14T20:47:23.660Z,84.57
2018-12-14T20:49:53.774Z,73.97
2018-12-14T20:52:24.139Z,83.30
2018-12-14T20:54:54.239Z,85.93
2018-12-14T20:57:24.576Z,84.63
2018-12-14T20:59:54.693Z,83.30
2018-12-14T21:02:24.954Z,83.58
2018-12-14T21:04:55.269Z,83.67
2018-12-14T21:07:25.762Z,86.70
2018-12-14T21:09:55.985Z,84.63
2018-12-14T21:12:26.207Z,83.20
2018-12-14T21:14:56.540Z,86.63
2018-12-14T21:17:26.916Z,81.07
2018-12-14T21:19:57.253Z,86.30
2018-12-14T21:22:27.402Z,85.53
2018-12-14T21:24:57.580Z,80.57
2018-12-14T21:27:27.962Z,84.15
2018-12-14T21:29:58.191Z,85.43
2018-12-14T21:32:28.353Z,83.70
2018-12-14T21:34:58.695Z,96.32
2018-12-14T21:37:29.074Z,82.63
2018-12-14T21:39:59.281Z,75.17
2018-12-14T21:42:29.850Z,82.10
2018-12-14T21:45:00.241Z,83.50
2018-12-14T21:47:30.439Z,82.37
2018-12-14T21:50:00.735Z,83.40
2018-12-14T21:52:31.251Z,87.40
2018-12-14T21:55:01.484Z,74.20
2018-12-14T21:57:31.841Z,82.40
2018-12-14T22:00:02.088Z,83.37
2018-12-14T22:06:21.353Z,81.87
2018-12-14T22:08:52.009Z,76.77
2018-12-14T22:11:22.206Z,89.13
2018-12-14T22:13:52.426Z,82.03
2018-12-14T22:16:23.283Z,90.87
2018-12-14T22:18:53.523Z,100.00
2018-12-14T22:21:24.209Z,88.65
2018-12-14T22:23:54.756Z,87.53
2018-12-14T22:26:25.031Z,89.10
2018-12-14T22:28:55.167Z,93.90
2018-12-14T22:31:25.299Z,90.40
2018-12-14T22:33:55.496Z,103.00
2018-12-14T22:36:25.904Z,100.80
2018-12-14T22:38:56.111Z,89.83
2018-12-14T22:41:26.296Z,93.50
2018-12-14T22:43:56.882Z,97.80
2018-12-14T22:46:27.337Z,100.77
2018-12-14T22:48:57.444Z,94.00
2018-12-14T22:51:27.563Z,93.50
2018-12-14T22:53:57.785Z,88.67
2018-12-14T22:56:27.893Z,101.63
2018-12-14T22:58:58.224Z,100.33
2018-12-14T23:01:28.569Z,103.32
2018-12-14T23:03:58.729Z,98.67
2018-12-14T23:06:29.020Z,90.50
2018-12-14T23:08:59.136Z,106.23
2018-12-14T23:11:29.480Z,101.15
2018-12-14T23:14:00.302Z,86.33
2018-12-14T23:16:30.912Z,105.03
2018-12-14T23:19:01.172Z,89.93
2018-12-14T23:21:34.315Z,93.85
2018-12-14T23:24:04.650Z,98.37
2018-12-14T23:26:34.842Z,94.53
2018-12-14T23:29:05.001Z,99.13
2018-12-14T23:31:35.727Z,102.70
2018-12-14T23:34:06.227Z,102.22
2018-12-14T23:36:36.584Z,97.17
2018-12-14T23:39:08.272Z,92.10
2018-12-14T23:41:38.459Z,95.37
2018-12-14T23:44:08.568Z,100.87
2018-12-14T23:46:38.865Z,107.00
2018-12-14T23:49:09.180Z,100.90
2018-12-14T23:51:39.508Z,102.73
2018-12-14T23:54:10.088Z,115.03
2018-12-14T23:56:40.199Z,106.10
2018-12-14T23:59:10.311Z,101.60
